Time;durP1;ratioP1;P1;durP2;ratioP2;P2;SDS_P1;SDS_P2;PMS_P1;PMS_P2;Temp;Humidity;BMP_temperature;BMP_pressure;BME280_temperature;BME280_humidity;BME280_pressure;Samples;Min_cycle;Max_cycle;Signal;HPM_P1;HPM_P2
2021/12/17 00:03:11;;;;;;;8.20;3.80;;;;;;;4.70;83.09;100104.52;213677;1320;22675;-70
2021/12/17 00:08:23;;;;;;;9.60;4.50;;;;;;;4.68;83.44;100105.53;213891;1316;22570;-72
2021/12/17 00:13:46;;;;;;;9.90;3.70;;;;;;;4.67;83.55;100102.14;213527;1319;24356;-71
2021/12/17 00:19:15;;;;;;;10.10;4.00;;;;;;;4.70;83.55;100100.33;213855;1323;25275;-72
2021/12/17 00:52:11;;;;;;;7.20;3.20;;;;;;;4.63;83.56;100095.36;213273;1325;22587;-71
2021/12/17 00:57:39;;;;;;;12.30;3.70;;;;;;;4.61;83.63;100102.89;213298;1324;22578;-72
2021/12/17 01:02:56;;;;;;;9.70;3.10;;;;;;;4.61;83.79;100107.17;213271;1324;25489;-72
2021/12/17 01:08:07;;;;;;;10.40;3.50;;;;;;;4.62;83.82;100106.79;213514;1325;25255;-71
2021/12/17 01:13:21;;;;;;;4.90;3.00;;;;;;;4.62;83.72;100107.48;213518;1316;22655;-71
2021/12/17 01:19:05;;;;;;;6.00;2.70;;;;;;;4.62;83.79;100108.91;213019;1321;25010;-72
2021/12/17 01:24:34;;;;;;;9.20;3.40;;;;;;;4.61;83.80;100104.05;213620;1319;24704;-74
2021/12/17 01:36:27;;;;;;;;;;;;;;;;;;;;;
2021/12/17 01:42:04;;;;;;;10.10;3.40;;;;;;;4.62;83.84;100084.29;213513;1316;25366;-71
2021/12/17 01:47:16;;;;;;;7.00;3.20;;;;;;;4.64;83.89;100076.48;213901;1323;22582;-71
2021/12/17 02:03:00;;;;;;;7.50;2.80;;;;;;;4.61;84.14;100092.52;213692;1323;24408;-72
2021/12/17 02:08:24;;;;;;;9.20;3.00;;;;;;;4.58;83.76;100088.13;213543;1319;22582;-72
2021/12/17 02:47:00;;;;;;;9.80;2.80;;;;;;;4.41;83.50;100087.36;213433;1324;22564;-71
2021/12/17 02:52:16;;;;;;;6.70;2.70;;;;;;;4.40;83.38;100088.92;213657;1316;22596;-71
2021/12/17 02:57:18;;;;;;;6.90;2.60;;;;;;;4.38;83.44;100086.12;213874;1323;22599;-71
2021/12/17 03:02:24;;;;;;;9.40;2.40;;;;;;;4.36;83.35;100070.11;213896;1322;22642;-72
2021/12/17 03:07:29;;;;;;;6.90;2.70;;;;;;;4.34;83.27;100072.79;213792;1323;22789;-71
2021/12/17 03:12:44;;;;;;;5.30;2.70;;;;;;;4.31;83.27;100066.77;213684;1319;22564;-71
2021/12/17 03:28:55;;;;;;;9.20;2.80;;;;;;;4.09;83.35;100045.74;213584;1322;25454;-72
2021/12/17 03:34:18;;;;;;;8.40;2.50;;;;;;;4.06;83.35;100044.41;213613;1323;25380;-71
2021/12/17 03:40:04;;;;;;;5.40;2.30;;;;;;;4.04;83.57;100046.30;213600;1316;24259;-72
2021/12/17 03:45:10;;;;;;;8.20;2.50;;;;;;;4.05;83.58;100039.29;213369;1318;22786;-72
2021/12/17 03:50:22;;;;;;;5.80;2.70;;;;;;;4.08;83.71;100040.98;213523;1323;22580;-71
2021/12/17 03:55:26;;;;;;;7.20;3.00;;;;;;;4.08;83.63;100037.26;213782;1322;24318;-72
2021/12/17 04:00:35;;;;;;;8.20;3.10;;;;;;;4.09;83.70;100021.95;213386;1318;24245;-71
2021/12/17 04:05:41;;;;;;;9.40;3.00;;;;;;;4.08;83.56;100035.73;213869;1322;22654;-70
2021/12/17 04:11:19;;;;;;;11.50;3.00;;;;;;;4.09;83.38;100016.62;213660;1323;23034;-71
2021/12/17 04:16:32;;;;;;;9.20;3.00;;;;;;;4.08;83.24;100017.76;213769;1323;24458;-71
2021/12/17 04:21:45;;;;;;;9.60;2.70;;;;;;;4.01;83.11;99998.80;213976;1319;22650;-71
2021/12/17 04:26:56;;;;;;;8.10;2.90;;;;;;;3.87;83.08;100007.38;213789;1317;22672;-71
2021/12/17 04:31:59;;;;;;;6.90;2.60;;;;;;;3.81;83.08;100013.30;213380;1322;23108;-72
2021/12/17 04:37:05;;;;;;;5.70;2.60;;;;;;;3.75;83.22;100010.70;213648;1316;22629;-71
2021/12/17 04:42:43;;;;;;;7.50;2.40;;;;;;;3.72;82.99;100013.58;213384;1317;22598;-71
2021/12/17 04:59:17;;;;;;;6.40;2.70;;;;;;;3.76;83.24;100022.09;213743;1320;22643;-71
2021/12/17 05:04:21;;;;;;;7.40;2.20;;;;;;;3.80;83.33;100017.83;213575;1322;22538;-71
2021/12/17 05:09:39;;;;;;;7.60;2.80;;;;;;;3.82;83.32;100014.34;213756;1323;22584;-72
2021/12/17 05:20:18;;;;;;;9.40;2.50;;;;;;;3.91;83.50;100016.11;213636;1323;22665;-70
2021/12/17 05:25:21;;;;;;;5.40;2.10;;;;;;;3.89;83.23;99994.52;212226;1323;24340;-70
2021/12/17 05:30:33;;;;;;;6.20;2.90;;;;;;;3.88;83.21;100005.73;215061;1324;23039;-69
2021/12/17 05:35:48;;;;;;;8.40;3.10;;;;;;;3.85;83.00;100003.15;214254;1318;22587;-70
2021/12/17 05:41:06;;;;;;;5.30;2.50;;;;;;;3.82;83.00;100005.70;206208;1323;22728;-71
2021/12/17 05:46:49;;;;;;;8.10;2.60;;;;;;;3.82;83.13;100015.85;213299;1323;22639;-70
2021/12/17 05:51:55;;;;;;;5.90;2.10;;;;;;;3.81;83.03;100012.39;213417;1323;25312;-71
2021/12/17 05:57:01;;;;;;;6.40;2.60;;;;;;;3.79;82.82;100008.56;213347;1324;22707;-71
2021/12/17 06:02:10;;;;;;;8.00;2.80;;;;;;;3.77;82.78;100020.08;213471;1322;26408;-71
2021/12/17 06:07:25;;;;;;;8.60;2.10;;;;;;;3.76;82.66;100018.70;213376;1323;25160;-70
2021/12/17 06:12:28;;;;;;;7.40;2.70;;;;;;;3.75;82.61;100031.39;213608;1324;23446;-71
2021/12/17 06:17:33;;;;;;;7.60;2.80;;;;;;;3.76;82.42;100044.52;213722;1324;25436;-72
2021/12/17 06:22:36;;;;;;;7.10;2.70;;;;;;;3.76;82.48;100053.36;213047;1325;25285;-71
2021/12/17 06:27:41;;;;;;;9.70;3.00;;;;;;;3.77;82.38;100064.36;213503;1318;25269;-71
2021/12/17 06:32:45;;;;;;;7.30;2.50;;;;;;;3.77;82.13;100069.61;213334;1318;22807;-71
2021/12/17 06:44:26;;;;;;;7.20;2.90;;;;;;;3.76;81.95;100063.10;214098;1318;22736;-71
2021/12/17 06:49:46;;;;;;;9.20;2.80;;;;;;;3.77;81.71;100075.13;213710;1318;24302;-70
2021/12/17 07:01:20;;;;;;;7.50;2.60;;;;;;;3.72;81.12;100072.71;214024;1316;23773;-71
2021/12/17 07:23:46;;;;;;;6.20;3.00;;;;;;;3.71;80.79;100057.41;213672;1316;22682;-71
2021/12/17 07:34:05;;;;;;;7.60;3.10;;;;;;;3.71;80.89;100058.55;213660;1316;23153;-70
2021/12/17 07:39:34;;;;;;;7.50;3.20;;;;;;;3.75;80.89;100065.85;213746;1316;25325;-71
2021/12/17 07:44:57;;;;;;;8.30;3.10;;;;;;;3.74;80.96;100064.55;213606;1318;25563;-71
2021/12/17 07:50:11;;;;;;;9.60;3.40;;;;;;;3.76;81.06;100073.30;213852;1318;25448;-71
2021/12/17 07:55:34;;;;;;;8.00;3.30;;;;;;;3.78;81.18;100077.61;213921;1317;22722;-72
2021/12/17 08:00:49;;;;;;;7.90;2.70;;;;;;;3.80;81.00;100075.89;214027;1318;22702;-71
2021/12/17 08:05:55;;;;;;;6.90;3.20;;;;;;;3.83;80.83;100067.81;213656;1318;22565;-71
2021/12/17 08:11:02;;;;;;;9.40;3.20;;;;;;;3.84;80.85;100064.73;213786;1316;22647;-70
2021/12/17 08:28:02;;;;;;;7.70;3.20;;;;;;;4.00;80.49;100071.83;213247;1318;22590;-71
2021/12/17 08:33:20;;;;;;;9.90;2.90;;;;;;;4.05;80.21;100082.31;213357;1318;22587;-70
2021/12/17 08:38:44;;;;;;;9.60;3.30;;;;;;;4.06;79.94;100087.95;213861;1316;23804;-71
2021/12/17 08:44:16;;;;;;;8.30;2.50;;;;;;;4.06;79.76;100094.44;213462;1318;22567;-70
2021/12/17 08:49:40;;;;;;;5.10;2.80;;;;;;;4.08;79.43;100095.32;213313;1318;24417;-70
2021/12/17 08:54:50;;;;;;;5.90;2.60;;;;;;;4.08;79.31;100093.13;213874;1316;22580;-69
2021/12/17 09:00:16;;;;;;;5.70;3.00;;;;;;;4.12;78.74;100096.27;212032;1316;24282;-69
2021/12/17 09:05:32;;;;;;;5.70;2.10;;;;;;;4.15;78.98;100104.83;211917;1315;22724;-70
2021/12/17 09:10:55;;;;;;;7.10;2.50;;;;;;;4.16;78.46;100101.35;213899;1318;22617;-69
2021/12/17 09:16:40;;;;;;;6.70;2.70;;;;;;;4.16;78.74;100108.23;211710;1318;22639;-70
2021/12/17 09:22:11;;;;;;;6.90;2.90;;;;;;;4.18;78.83;100115.09;212058;1315;25376;-69
2021/12/17 09:27:24;;;;;;;10.20;3.10;;;;;;;4.24;78.80;100093.87;212408;1318;22649;-69
2021/12/17 09:33:02;;;;;;;7.20;3.60;;;;;;;4.26;78.52;100090.71;212668;1318;22599;-70
2021/12/17 09:38:05;;;;;;;6.30;3.10;;;;;;;4.29;78.83;100094.41;212138;1318;22650;-70
2021/12/17 09:43:10;;;;;;;10.00;3.40;;;;;;;4.34;78.91;100082.88;213606;1317;22593;-69
2021/12/17 09:48:20;;;;;;;7.60;3.00;;;;;;;4.40;78.86;100084.87;213523;1322;22551;-69
2021/12/17 09:53:23;;;;;;;6.90;2.80;;;;;;;4.46;78.62;100080.10;211959;1316;22575;-69
2021/12/17 09:58:27;;;;;;;7.60;2.90;;;;;;;4.52;78.48;100072.13;212271;1317;22600;-69
2021/12/17 10:03:34;;;;;;;8.60;2.70;;;;;;;4.57;78.25;100067.23;212194;1316;22586;-71
2021/12/17 10:08:47;;;;;;;8.10;2.50;;;;;;;4.62;78.43;100057.63;213844;1316;22649;-70
2021/12/17 10:13:50;;;;;;;6.80;2.90;;;;;;;4.70;77.87;100058.39;212464;1316;22584;-70
2021/12/17 10:18:53;;;;;;;7.00;2.80;;;;;;;4.73;77.57;100051.25;212061;1316;24154;-70
2021/12/17 10:23:58;;;;;;;7.20;2.30;;;;;;;4.74;77.38;100051.44;215192;1318;22633;-70
2021/12/17 10:29:06;;;;;;;7.70;2.70;;;;;;;4.77;77.34;100051.08;215012;1316;22596;-70
2021/12/17 10:34:49;;;;;;;;;;;;;;;;;;;;;
2021/12/17 10:40:24;;;;;;;8.40;3.10;;;;;;;4.89;77.48;100051.67;213847;1316;24452;-70
2021/12/17 10:45:43;;;;;;;9.00;3.20;;;;;;;4.81;76.53;100055.45;214753;1316;22607;-70
2021/12/17 10:50:50;;;;;;;8.50;4.00;;;;;;;4.76;76.61;100054.98;213986;1316;22588;-70
2021/12/17 10:55:57;;;;;;;8.10;3.30;;;;;;;4.72;76.86;100053.95;213939;1319;22768;-70
2021/12/17 11:01:06;;;;;;;4.80;3.10;;;;;;;4.69;76.50;100048.43;213922;1319;24318;-70
2021/12/17 11:06:11;;;;;;;7.60;3.00;;;;;;;4.62;75.99;100049.86;213841;1319;22609;-71
2021/12/17 11:11:19;;;;;;;8.00;3.80;;;;;;;4.59;76.48;100045.50;213571;1316;22577;-71
2021/12/17 11:17:44;;;;;;;6.30;3.20;;;;;;;4.58;75.84;100045.70;213893;1316;22613;-71
2021/12/17 11:22:41;;;;;;;8.70;3.90;;;;;;;4.54;75.22;100037.86;213690;1321;22649;-70
2021/12/17 11:27:58;;;;;;;7.40;4.00;;;;;;;4.56;75.47;100044.42;214434;1316;23728;-70
2021/12/17 11:33:06;;;;;;;7.00;3.50;;;;;;;4.62;74.98;100041.12;214692;1318;25156;-71
2021/12/17 11:38:15;;;;;;;9.60;4.30;;;;;;;4.63;75.01;100042.42;214404;1316;22653;-70
2021/12/17 11:43:59;;;;;;;8.50;3.80;;;;;;;4.62;75.10;100041.33;214155;1318;22626;-69
2021/12/17 11:49:15;;;;;;;6.50;3.40;;;;;;;4.58;75.39;100035.09;215149;1317;22571;-69
2021/12/17 11:54:33;;;;;;;9.60;4.90;;;;;;;4.59;75.33;100043.09;213929;1318;22591;-69
2021/12/17 11:59:41;;;;;;;6.40;3.70;;;;;;;4.55;75.31;100039.77;211787;1316;24307;-68
2021/12/17 12:04:55;;;;;;;11.00;5.90;;;;;;;4.53;75.06;100034.40;211557;1317;22577;-69
2021/12/17 12:10:19;;;;;;;10.70;5.00;;;;;;;4.54;75.07;100031.77;212469;1316;24342;-68
2021/12/17 12:15:22;;;;;;;9.00;4.20;;;;;;;4.55;75.33;100029.48;211682;1316;22738;-69
2021/12/17 12:20:47;;;;;;;11.20;4.70;;;;;;;4.56;74.88;100022.03;212042;1316;22668;-69
2021/12/17 12:26:05;;;;;;;8.00;4.10;;;;;;;4.52;74.54;100032.48;211449;1319;22610;-69
2021/12/17 12:31:08;;;;;;;8.10;4.00;;;;;;;4.47;74.56;100034.72;211881;1316;22586;-70
2021/12/17 12:36:10;;;;;;;8.70;4.30;;;;;;;4.42;74.80;100036.20;215141;1316;22745;-69
2021/12/17 12:41:14;;;;;;;7.50;3.40;;;;;;;4.43;74.89;100037.90;211938;1316;22657;-70
2021/12/17 12:47:11;;;;;;;8.50;4.80;;;;;;;4.40;74.59;100041.00;213784;1316;22503;-70
2021/12/17 12:52:45;;;;;;;7.90;3.50;;;;;;;4.34;74.99;100044.92;211205;1317;22704;-69
2021/12/17 12:58:01;;;;;;;9.20;4.30;;;;;;;4.31;75.23;100039.39;211678;1316;22608;-69
2021/12/17 13:03:13;;;;;;;6.10;3.60;;;;;;;4.28;75.31;100033.89;211838;1316;22500;-69
2021/12/17 13:08:19;;;;;;;9.40;3.90;;;;;;;4.25;75.41;100031.64;213261;1319;25007;-69
2021/12/17 13:13:50;;;;;;;6.20;3.60;;;;;;;4.21;75.45;100030.53;211622;1322;22614;-68
2021/12/17 13:24:36;;;;;;;10.10;4.50;;;;;;;4.14;75.65;100022.33;211462;1316;23045;-69
2021/12/17 13:29:44;;;;;;;16.30;4.40;;;;;;;4.11;75.98;100024.67;211754;1316;22651;-70
2021/12/17 13:34:53;;;;;;;9.40;4.10;;;;;;;4.11;76.18;100025.54;211688;1323;22616;-70
2021/12/17 13:40:09;;;;;;;8.90;4.10;;;;;;;4.10;76.19;100021.34;214414;1316;229656;-70
2021/12/17 13:45:13;;;;;;;6.30;3.80;;;;;;;4.10;76.29;100012.29;214334;1321;22721;-71
2021/12/17 13:50:30;;;;;;;7.80;3.90;;;;;;;4.08;76.04;100014.73;213835;1324;22606;-71
2021/12/17 13:55:45;;;;;;;8.00;3.70;;;;;;;4.06;75.99;100017.16;214101;1316;22635;-70
2021/12/17 14:00:53;;;;;;;9.30;4.60;;;;;;;4.02;75.86;100029.99;214016;1316;25335;-69
2021/12/17 14:06:09;;;;;;;10.30;4.40;;;;;;;3.99;75.75;100026.59;211457;1316;26505;-71
2021/12/17 14:11:42;;;;;;;10.70;4.60;;;;;;;3.95;76.04;100024.70;211498;1316;25325;-69
2021/12/17 14:17:17;;;;;;;8.10;4.20;;;;;;;3.94;76.47;100018.31;211594;1316;22620;-70
2021/12/17 14:22:28;;;;;;;10.00;4.50;;;;;;;3.95;76.82;100021.08;211862;1316;24257;-68
2021/12/17 14:27:45;;;;;;;7.90;4.00;;;;;;;3.92;76.81;100035.73;214002;1318;24255;-69
2021/12/17 14:33:01;;;;;;;11.10;3.90;;;;;;;3.91;76.72;100025.63;211625;1319;22643;-69
2021/12/17 14:38:12;;;;;;;9.60;4.90;;;;;;;3.86;76.85;100029.16;211860;1316;25842;-70
2021/12/17 14:43:23;;;;;;;7.10;4.10;;;;;;;3.79;76.79;100039.44;212084;1323;25370;-71
2021/12/17 14:48:38;;;;;;;6.90;3.60;;;;;;;3.74;76.79;100037.71;213651;1321;24571;-71
2021/12/17 15:04:48;;;;;;;8.00;3.70;;;;;;;3.69;77.31;100031.70;213058;1321;22587;-72
2021/12/17 15:09:51;;;;;;;9.50;4.20;;;;;;;3.69;77.32;100035.17;213521;1319;22731;-73
2021/12/17 15:15:17;;;;;;;11.60;5.20;;;;;;;3.68;77.38;100036.75;213512;1322;22605;-71
2021/12/17 15:20:56;;;;;;;9.70;4.20;;;;;;;3.65;77.55;100038.98;213505;1321;25267;-72
2021/12/17 15:26:44;;;;;;;11.00;4.40;;;;;;;3.65;77.47;100045.11;213893;1317;24251;-71
2021/12/17 15:31:56;;;;;;;7.30;4.30;;;;;;;3.64;77.74;100051.98;213886;1316;24476;-72
2021/12/17 15:37:22;;;;;;;7.20;4.00;;;;;;;3.64;77.65;100055.58;213764;1316;24779;-71
2021/12/17 15:42:42;;;;;;;;;;;;;;;;;;;;;
2021/12/17 15:47:47;;;;;;;8.70;4.00;;;;;;;3.64;77.84;100067.89;213744;1322;22567;-70
2021/12/17 15:52:53;;;;;;;12.20;5.00;;;;;;;3.61;77.75;100057.39;212810;1316;24254;-72
2021/12/17 15:57:59;;;;;;;8.70;4.50;;;;;;;3.57;77.71;100052.98;213518;1321;22729;-71
2021/12/17 16:03:06;;;;;;;12.90;4.10;;;;;;;3.54;77.65;100050.89;213458;1322;22596;-72
2021/12/17 16:08:09;;;;;;;10.80;5.00;;;;;;;3.53;77.90;100048.78;213563;1322;22732;-71
2021/12/17 16:23:55;;;;;;;10.90;4.90;;;;;;;3.50;78.03;100060.00;213423;1323;22587;-71
2021/12/17 16:29:03;;;;;;;12.80;5.20;;;;;;;3.52;78.13;100052.77;213770;1323;22751;-72
2021/12/17 16:34:06;;;;;;;10.20;5.00;;;;;;;3.51;78.15;100049.20;214050;1319;22701;-71
2021/12/17 16:39:13;;;;;;;9.00;4.70;;;;;;;3.49;78.20;100050.50;213402;1318;23051;-71
2021/12/17 16:44:51;;;;;;;9.50;3.90;;;;;;;3.47;78.29;100049.73;213874;1316;22587;-71
2021/12/17 16:50:08;;;;;;;8.20;4.00;;;;;;;3.45;78.37;100052.23;213778;1322;23243;-70
2021/12/17 16:55:16;;;;;;;10.20;4.70;;;;;;;3.45;78.48;100053.58;213606;1323;25595;-71
2021/12/17 17:00:19;;;;;;;10.00;4.90;;;;;;;3.43;78.41;100057.24;213155;1322;26431;-73
2021/12/17 17:05:24;;;;;;;10.20;5.00;;;;;;;3.43;78.79;100059.73;213702;1323;25332;-72
2021/12/17 17:10:36;;;;;;;12.60;5.50;;;;;;;3.42;78.75;100054.77;213546;1321;23720;-71
2021/12/17 17:15:52;;;;;;;12.80;5.20;;;;;;;3.40;78.90;100057.05;213610;1320;23939;-71
2021/12/17 17:20:55;;;;;;;12.70;5.20;;;;;;;3.37;78.97;100067.88;213899;1323;25400;-69
2021/12/17 17:25:58;;;;;;;9.50;5.30;;;;;;;3.36;79.16;100067.46;213798;1322;23800;-71
2021/12/17 17:31:04;;;;;;;10.70;4.80;;;;;;;3.36;79.14;100066.85;213344;1323;24021;-72
2021/12/17 17:36:17;;;;;;;11.90;5.30;;;;;;;3.38;79.04;100071.41;213586;1323;25345;-71
2021/12/17 17:41:41;;;;;;;11.20;4.90;;;;;;;3.37;79.12;100077.90;213737;1315;25896;-73
2021/12/17 17:46:43;;;;;;;13.60;5.70;;;;;;;3.34;79.15;100085.33;213627;1323;25425;-72
2021/12/17 17:51:50;;;;;;;11.30;5.50;;;;;;;3.35;79.34;100093.02;213561;1318;23101;-71
2021/12/17 17:57:02;;;;;;;;;;;;;;;3.36;79.46;100097.27;213973;1318;25534;-72
2021/12/17 18:02:18;;;;;;;14.10;5.20;;;;;;;3.36;79.34;100096.73;213684;1319;22730;-72
2021/12/17 18:07:51;;;;;;;11.70;6.20;;;;;;;3.36;79.50;100093.34;213743;1320;22594;-71
2021/12/17 18:12:59;;;;;;;12.10;5.30;;;;;;;3.36;79.46;100088.14;213726;1315;22711;-70
2021/12/17 18:18:03;;;;;;;14.30;6.30;;;;;;;3.35;79.42;100102.73;213667;1318;22581;-73
2021/12/17 18:23:06;;;;;;;16.10;5.70;;;;;;;3.34;79.53;100111.03;213426;1322;23520;-70
2021/12/17 18:28:24;;;;;;;9.90;5.20;;;;;;;3.34;79.48;100101.83;213680;1321;23061;-72
2021/12/17 18:33:30;;;;;;;9.90;4.70;;;;;;;3.33;79.70;100107.37;213549;1319;22598;-71
2021/12/17 18:38:37;;;;;;;10.10;4.90;;;;;;;3.34;79.61;100097.70;213715;1319;24255;-71
2021/12/17 18:44:06;;;;;;;;;;;;;;;3.36;79.64;100096.05;213713;1320;24346;-70
2021/12/17 18:49:13;;;;;;;10.20;4.60;;;;;;;3.35;79.66;100089.30;213500;1323;24272;-73
2021/12/17 18:55:01;;;;;;;12.30;5.70;;;;;;;3.35;79.57;100083.52;213661;1323;22621;-72
2021/12/17 19:00:46;;;;;;;9.80;4.90;;;;;;;3.36;79.63;100090.26;213772;1316;22612;-72
2021/12/17 19:06:33;;;;;;;8.30;4.80;;;;;;;3.36;79.53;100091.84;213675;1323;26468;-72
2021/12/17 19:12:18;;;;;;;11.00;4.40;;;;;;;3.36;79.53;100090.90;213879;1322;22620;-71
2021/12/17 19:17:31;;;;;;;11.60;4.10;;;;;;;3.36;79.43;100101.48;213364;1323;22650;-70
2021/12/17 19:22:38;;;;;;;8.90;4.40;;;;;;;3.36;79.40;100109.05;213655;1323;22632;-72
2021/12/17 19:27:54;;;;;;;12.50;5.40;;;;;;;3.38;79.34;100117.50;213437;1318;25405;-74
2021/12/17 19:32:57;;;;;;;13.60;5.10;;;;;;;3.40;79.24;100121.13;213443;1320;22580;-72
2021/12/17 19:38:00;;;;;;;11.70;5.30;;;;;;;3.40;79.18;100125.20;213743;1317;25486;-72
2021/12/17 19:43:02;;;;;;;10.90;4.50;;;;;;;3.39;79.18;100127.98;213613;1319;24442;-71
2021/12/17 19:53:17;;;;;;;8.80;4.00;;;;;;;3.39;79.06;100140.85;213697;1315;22603;-70
2021/12/17 19:58:22;;;;;;;9.50;4.50;;;;;;;3.38;78.85;100148.64;213673;1315;22587;-72
2021/12/17 20:03:42;;;;;;;8.80;4.30;;;;;;;3.36;78.88;100152.48;213434;1320;24384;-72
2021/12/17 20:08:50;;;;;;;9.70;4.20;;;;;;;3.35;78.68;100155.52;213751;1316;22665;-72
2021/12/17 20:14:33;;;;;;;12.90;4.80;;;;;;;3.32;78.74;100151.98;214033;1323;23001;-71
2021/12/17 20:20:11;;;;;;;7.60;3.80;;;;;;;3.34;78.83;100150.02;213948;1320;22796;-69
2021/12/17 20:25:22;;;;;;;8.90;4.00;;;;;;;3.32;78.78;100154.20;213787;1323;24170;-71
2021/12/17 20:30:29;;;;;;;10.60;3.80;;;;;;;3.31;78.72;100157.09;213609;1321;26707;-71
2021/12/17 20:35:50;;;;;;;8.20;3.40;;;;;;;3.30;78.73;100158.47;213676;1320;22736;-71
2021/12/17 20:40:53;;;;;;;6.80;3.40;;;;;;;3.27;78.67;100166.35;213629;1323;22621;-71
2021/12/17 20:46:06;;;;;;;10.60;3.40;;;;;;;3.23;78.71;100158.36;213407;1321;22657;-71
2021/12/17 20:51:15;;;;;;;8.00;4.10;;;;;;;3.25;78.70;100167.80;213271;1323;22592;-72
2021/12/17 20:56:17;;;;;;;8.20;3.50;;;;;;;3.24;78.56;100177.47;213410;1323;22582;-71
2021/12/17 21:01:22;;;;;;;12.10;4.10;;;;;;;3.20;78.51;100161.02;212517;1323;24140;-71
2021/12/17 21:06:34;;;;;;;11.00;4.00;;;;;;;3.16;78.41;100162.23;213626;1324;23624;-72
2021/12/17 21:11:49;;;;;;;7.60;3.80;;;;;;;3.13;78.43;100159.18;213438;1319;25226;-71
2021/12/17 21:16:56;;;;;;;6.00;3.50;;;;;;;3.10;78.49;100157.40;213566;1324;22574;-71
2021/12/17 21:22:02;;;;;;;8.70;3.80;;;;;;;3.09;78.44;100163.88;213490;1316;22618;-72
2021/12/17 21:27:08;;;;;;;7.80;4.00;;;;;;;3.06;78.47;100170.84;213749;1322;22522;-71
2021/12/17 21:32:25;;;;;;;9.10;3.60;;;;;;;3.06;78.50;100177.65;213570;1318;22743;-69
2021/12/17 21:37:39;;;;;;;10.90;4.10;;;;;;;3.05;78.44;100192.84;213403;1316;320528;-69
2021/12/17 21:42:44;;;;;;;10.80;4.30;;;;;;;3.04;78.60;100198.66;213516;1319;22580;-73
2021/12/17 21:47:50;;;;;;;10.70;4.10;;;;;;;3.02;78.64;100199.77;213578;1321;22705;-71
2021/12/17 21:52:54;;;;;;;7.10;4.10;;;;;;;3.01;78.62;100192.66;213323;1322;22709;-71
2021/12/17 21:57:59;;;;;;;8.70;4.20;;;;;;;3.00;78.61;100195.81;213526;1318;22615;-70
2021/12/17 22:03:01;;;;;;;8.00;3.80;;;;;;;3.00;78.64;100216.10;213236;1324;22579;-71
2021/12/17 22:08:33;;;;;;;;;;;;;;;;;;;;;
2021/12/17 22:14:20;;;;;;;8.60;4.50;;;;;;;2.98;78.67;100222.41;213479;1324;24316;-72
2021/12/17 22:19:53;;;;;;;8.30;3.50;;;;;;;2.98;78.70;100223.59;213521;1319;24555;-71
2021/12/17 22:24:57;;;;;;;5.60;3.20;;;;;;;2.98;78.72;100226.08;213499;1323;22592;-71
2021/12/17 22:30:06;;;;;;;10.20;3.80;;;;;;;2.98;78.71;100225.73;213662;1325;25352;-71
2021/12/17 22:35:27;;;;;;;7.10;3.50;;;;;;;2.95;78.72;100233.84;213772;1323;22594;-72
2021/12/17 22:40:34;;;;;;;8.80;3.70;;;;;;;2.94;78.63;100241.45;213693;1322;25479;-71
2021/12/17 22:45:39;;;;;;;10.50;4.00;;;;;;;2.91;78.63;100242.89;213674;1323;25403;-72
2021/12/17 22:50:51;;;;;;;9.00;3.90;;;;;;;2.88;78.65;100248.45;214113;1323;25393;-72
2021/12/17 22:55:55;;;;;;;8.20;3.90;;;;;;;2.86;78.75;100254.60;213845;1320;25279;-71
2021/12/17 23:01:17;;;;;;;8.20;3.60;;;;;;;2.86;78.81;100263.64;213488;1316;23233;-72
2021/12/17 23:06:43;;;;;;;;;;;;;;;;;;;;;
2021/12/17 23:12:15;;;;;;;7.40;3.50;;;;;;;2.81;78.65;100258.30;213391;1322;24155;-72
2021/12/17 23:17:37;;;;;;;7.90;3.70;;;;;;;2.80;78.81;100270.27;213544;1323;22710;-72
2021/12/17 23:22:44;;;;;;;9.60;3.70;;;;;;;2.80;78.88;100280.70;213119;1321;25522;-71
2021/12/17 23:27:47;;;;;;;6.40;3.30;;;;;;;2.73;79.00;100272.49;212782;1320;22568;-72
2021/12/17 23:38:48;;;;;;;11.40;4.20;;;;;;;2.59;79.54;100280.06;213057;1322;22590;-71
2021/12/17 23:43:51;;;;;;;11.60;4.20;;;;;;;2.56;79.62;100277.24;213591;1323;22675;-73
2021/12/17 23:48:56;;;;;;;8.40;3.80;;;;;;;2.56;79.72;100278.27;213711;1320;24453;-71
2021/12/17 23:53:59;;;;;;;8.90;3.60;;;;;;;2.57;79.88;100285.10;213550;1316;22598;-70
2021/12/17 23:59:05;;;;;;;6.00;3.40;;;;;;;2.60;79.87;100288.53;213449;1323;24449;-71
